Terminal Aerodrome Forecast
Issued by NWS

Home | Current Version | Previous Version | Text Only | Print | Product List | Glossary On
Versions: 1 2 3 4 5 6 7 8 9 10 11 12 13 14 15 16
000
FTUS43 KMQT 241446 AAB
TAFIWD
TAF AMD
KIWD 241446Z 2415/2512 23005KT P6SM BKN020
      TEMPO 2415/2416 BKN008
     FM241700 26005KT P6SM BKN020
     FM242100 26006KT P6SM BKN035
     FM242200 26006KT P6SM SCT060
      AMD LTD TO CLD VIS AND WIND=

USA.gov is the U.S. government's official web portal to all federal, state and local government web resources and services.